createdAt,value
2023-02-08T00:01:27.236Z,95.49
2023-02-08T00:03:53.913Z,95.58
2023-02-08T00:06:20.427Z,95.76
2023-02-08T00:08:46.941Z,95.53
2023-02-08T00:11:13.508Z,95.57
2023-02-08T00:13:42.209Z,95.28
2023-02-08T00:16:09.360Z,95.60
2023-02-08T00:18:35.862Z,95.43
2023-02-08T00:21:10.654Z,95.69
2023-02-08T00:23:37.361Z,96.53
2023-02-08T00:26:04.169Z,96.63
2023-02-08T00:28:30.951Z,96.63
2023-02-08T00:30:57.820Z,96.71
2023-02-08T00:33:24.516Z,96.44
2023-02-08T00:35:51.795Z,96.31
2023-02-08T00:38:18.281Z,96.80
2023-02-08T00:40:44.743Z,96.66
2023-02-08T00:43:11.742Z,96.59
2023-02-08T00:45:38.362Z,96.68
2023-02-08T00:48:04.813Z,96.82
2023-02-08T00:50:31.306Z,97.42
2023-02-08T00:52:59.606Z,97.08
2023-02-08T00:55:26.050Z,97.05
2023-02-08T00:57:52.478Z,97.42
2023-02-08T01:00:19.083Z,98.66
2023-02-08T01:02:45.576Z,98.21
2023-02-08T01:05:12.738Z,97.81
2023-02-08T01:07:39.450Z,97.57
2023-02-08T01:10:07.274Z,97.11
2023-02-08T01:12:33.710Z,97.32
2023-02-08T01:15:00.188Z,97.55
2023-02-08T01:17:26.714Z,97.84
2023-02-08T01:19:53.449Z,97.67
2023-02-08T01:22:19.963Z,97.06
2023-02-08T01:24:46.430Z,97.41
2023-02-08T01:27:12.988Z,97.25
2023-02-08T01:29:39.435Z,96.61
2023-02-08T01:32:06.098Z,96.77
2023-02-08T01:34:32.585Z,97.18
2023-02-08T01:36:59.108Z,96.92
2023-02-08T01:39:25.600Z,97.21
2023-02-08T01:41:52.118Z,97.07
2023-02-08T01:44:18.562Z,96.74
2023-02-08T01:46:48.604Z,96.73
2023-02-08T01:49:20.541Z,96.42
2023-02-08T01:51:54.847Z,96.35
2023-02-08T01:54:24.129Z,97.05
2023-02-08T01:56:50.934Z,97.02
2023-02-08T01:59:22.827Z,97.82
2023-02-08T02:01:51.434Z,98.34
2023-02-08T02:04:18.057Z,98.02
2023-02-08T02:06:47.115Z,98.27
2023-02-08T02:09:36.245Z,98.85
2023-02-08T02:12:02.715Z,99.16
2023-02-08T02:14:29.303Z,99.43
2023-02-08T02:16:55.868Z,99.40
2023-02-08T02:19:30.882Z,98.92
2023-02-08T02:22:10.905Z,99.00
2023-02-08T02:25:09.533Z,99.52
2023-02-08T02:27:45.649Z,98.85
2023-02-08T02:30:37.312Z,99.48
2023-02-08T02:33:31.910Z,100.00
2023-02-08T02:36:35.383Z,100.00
2023-02-08T02:39:23.614Z,100.00
2023-02-08T02:42:19.971Z,100.00
2023-02-08T02:44:58.522Z,100.00
2023-02-08T02:47:31.729Z,100.00
2023-02-08T02:50:10.160Z,100.00
2023-02-08T02:52:48.686Z,99.86
2023-02-08T02:55:17.414Z,99.93
2023-02-08T02:57:45.090Z,99.86
2023-02-08T03:00:13.930Z,99.43
2023-02-08T03:02:40.421Z,99.36
2023-02-08T03:05:09.639Z,98.74
2023-02-08T03:07:50.433Z,99.44
2023-02-08T03:10:22.780Z,99.19
2023-02-08T03:12:59.589Z,99.06
2023-02-08T03:15:34.666Z,98.99
2023-02-08T03:18:13.018Z,98.90
2023-02-08T03:20:50.076Z,99.08
2023-02-08T03:23:30.548Z,99.27
2023-02-08T03:26:08.280Z,99.20
2023-02-08T03:29:03.278Z,99.13
2023-02-08T03:31:40.061Z,99.37
2023-02-08T03:34:12.908Z,98.83
2023-02-08T03:37:31.025Z,98.44
2023-02-08T03:40:36.327Z,98.25
2023-02-08T03:43:08.843Z,98.24
2023-02-08T03:45:42.392Z,98.63
2023-02-08T03:48:11.017Z,98.16
2023-02-08T03:50:39.941Z,98.40
2023-02-08T03:53:07.735Z,97.71
2023-02-08T03:55:35.803Z,98.08
2023-02-08T03:58:19.762Z,98.11
2023-02-08T04:00:52.277Z,98.06
2023-02-08T04:03:27.462Z,97.82
2023-02-08T04:05:54.460Z,97.96
2023-02-08T04:08:21.899Z,98.08
2023-02-08T04:10:48.951Z,98.11
2023-02-08T04:13:15.598Z,97.98
2023-02-08T04:15:42.140Z,98.38
2023-02-08T04:18:08.702Z,98.28
2023-02-08T04:20:35.195Z,98.91
2023-02-08T04:23:01.668Z,98.92
2023-02-08T04:25:28.497Z,98.52
2023-02-08T04:27:55.035Z,98.90
2023-02-08T04:30:21.505Z,98.53
2023-02-08T04:32:48.112Z,98.92
2023-02-08T04:35:14.719Z,98.86
2023-02-08T04:37:41.179Z,98.77
2023-02-08T04:40:08.113Z,99.03
2023-02-08T04:42:35.249Z,99.09
2023-02-08T04:45:01.744Z,99.44
2023-02-08T04:47:28.399Z,98.63
2023-02-08T04:49:54.825Z,98.87
2023-02-08T04:52:21.269Z,98.80
2023-02-08T04:54:47.701Z,98.70
2023-02-08T04:57:14.332Z,99.00
2023-02-08T04:59:40.854Z,99.25
2023-02-08T05:02:07.342Z,98.82
2023-02-08T05:04:34.093Z,99.17
2023-02-08T05:07:00.536Z,99.28
2023-02-08T05:09:27.075Z,99.19
2023-02-08T05:11:53.518Z,99.23
2023-02-08T05:14:20.064Z,98.93
2023-02-08T05:16:46.545Z,99.00
2023-02-08T05:19:13.467Z,98.62
2023-02-08T05:21:39.971Z,98.20
2023-02-08T05:24:07.191Z,98.66
2023-02-08T05:26:33.665Z,99.15
2023-02-08T05:29:00.165Z,98.63
2023-02-08T05:31:26.941Z,98.81
2023-02-08T05:33:53.658Z,98.85
2023-02-08T05:36:23.188Z,98.38
2023-02-08T05:38:50.012Z,98.40
2023-02-08T05:41:17.191Z,98.84
2023-02-08T05:43:43.642Z,98.59
2023-02-08T05:46:10.096Z,98.53
2023-02-08T05:48:36.758Z,98.54
2023-02-08T05:51:03.616Z,99.08
2023-02-08T05:53:30.520Z,98.73
2023-02-08T05:56:00.128Z,99.04
2023-02-08T05:58:26.943Z,98.93
2023-02-08T06:00:53.528Z,98.83
2023-02-08T06:03:20.092Z,98.74
2023-02-08T06:05:46.678Z,98.68
2023-02-08T06:08:13.237Z,98.34
2023-02-08T06:10:40.084Z,98.58
2023-02-08T06:13:06.760Z,99.13
2023-02-08T06:15:33.229Z,99.21
2023-02-08T06:17:59.791Z,99.33
2023-02-08T06:20:26.470Z,99.38
2023-02-08T06:22:53.138Z,98.49
2023-02-08T06:25:19.651Z,98.66
2023-02-08T06:27:46.325Z,98.78
2023-02-08T06:30:13.372Z,98.68
2023-02-08T06:32:39.906Z,98.91
2023-02-08T06:35:07.072Z,98.61
2023-02-08T06:37:33.950Z,98.99
2023-02-08T06:40:01.966Z,98.62
2023-02-08T06:42:28.584Z,98.46
2023-02-08T06:44:56.076Z,98.01
2023-02-08T06:47:23.308Z,98.05
2023-02-08T06:49:50.246Z,98.18
2023-02-08T06:52:16.958Z,97.13
2023-02-08T06:54:43.424Z,97.53
2023-02-08T06:57:12.914Z,97.42
2023-02-08T06:59:40.314Z,96.25
2023-02-08T07:02:14.036Z,96.01
2023-02-08T07:04:40.621Z,96.06
2023-02-08T07:07:07.595Z,96.92
2023-02-08T07:09:35.208Z,97.16
2023-02-08T07:12:05.328Z,97.27
2023-02-08T07:14:37.163Z,96.71
2023-02-08T07:17:03.840Z,96.45
2023-02-08T07:19:30.525Z,96.02
2023-02-08T07:21:57.443Z,95.44
2023-02-08T07:24:24.156Z,95.80
2023-02-08T07:26:50.731Z,96.32
2023-02-08T07:29:17.245Z,96.36
2023-02-08T07:31:43.752Z,96.24
2023-02-08T07:34:10.256Z,97.11
2023-02-08T07:36:36.844Z,97.67
2023-02-08T07:39:03.540Z,98.01
2023-02-08T07:41:30.076Z,96.58
2023-02-08T07:43:56.510Z,95.35
2023-02-08T07:46:23.715Z,96.00
2023-02-08T07:48:50.329Z,95.79
2023-02-08T07:51:16.976Z,96.44
2023-02-08T07:53:43.509Z,95.36
2023-02-08T07:56:10.476Z,95.61
2023-02-08T07:58:37.506Z,97.02
2023-02-08T08:01:19.507Z,96.95
2023-02-08T08:03:48.749Z,97.32
2023-02-08T08:06:15.287Z,97.09
2023-02-08T08:08:42.354Z,96.74
2023-02-08T08:11:08.955Z,97.02
2023-02-08T08:13:35.409Z,96.19
2023-02-08T08:16:01.986Z,96.19
2023-02-08T08:18:29.247Z,95.92
2023-02-08T08:20:55.726Z,96.43
2023-02-08T08:23:23.899Z,96.47
2023-02-08T08:25:50.432Z,95.42
2023-02-08T08:28:17.137Z,96.21
2023-02-08T08:30:44.687Z,97.04
2023-02-08T08:33:14.070Z,97.50
2023-02-08T08:35:41.172Z,97.36
2023-02-08T08:38:07.634Z,97.54
2023-02-08T08:40:34.251Z,97.57
2023-02-08T08:43:00.761Z,98.09
2023-02-08T08:45:27.401Z,97.71
2023-02-08T08:47:54.028Z,97.58
2023-02-08T08:50:20.492Z,97.63
2023-02-08T08:52:46.932Z,97.39
2023-02-08T08:55:13.519Z,97.54
2023-02-08T08:57:39.979Z,97.59
2023-02-08T09:00:06.799Z,97.56
2023-02-08T09:02:33.319Z,96.40
2023-02-08T09:05:00.312Z,96.41
2023-02-08T09:07:26.927Z,96.71
2023-02-08T09:09:53.393Z,96.81
2023-02-08T09:12:19.889Z,96.16
2023-02-08T09:14:46.412Z,96.22
2023-02-08T09:17:13.039Z,96.74
2023-02-08T09:19:39.592Z,96.21
2023-02-08T09:22:07.351Z,95.67
2023-02-08T09:24:34.504Z,95.04
2023-02-08T09:27:01.335Z,94.53
2023-02-08T09:29:30.159Z,95.07
2023-02-08T09:31:57.266Z,94.94
2023-02-08T09:34:24.247Z,95.16
2023-02-08T09:36:50.749Z,95.59
2023-02-08T09:39:20.378Z,95.37
2023-02-08T09:42:08.850Z,94.88
2023-02-08T09:44:47.222Z,95.03
2023-02-08T09:47:29.514Z,94.57
2023-02-08T09:50:04.011Z,94.46
2023-02-08T09:52:39.188Z,94.78
2023-02-08T09:55:29.096Z,93.78
2023-02-08T09:57:58.354Z,93.28
2023-02-08T10:00:51.647Z,93.09
2023-02-08T10:03:30.282Z,92.18
2023-02-08T10:05:57.201Z,90.76
2023-02-08T10:08:34.367Z,90.76
2023-02-08T10:11:13.275Z,90.16
2023-02-08T10:13:45.201Z,89.65
2023-02-08T10:16:49.089Z,89.37
2023-02-08T10:19:38.211Z,88.51
2023-02-08T10:22:16.405Z,87.49
2023-02-08T10:25:04.460Z,86.29
2023-02-08T10:27:54.402Z,87.25
2023-02-08T10:30:31.611Z,86.97
2023-02-08T10:33:02.013Z,86.39
2023-02-08T10:35:37.257Z,86.66
2023-02-08T10:38:23.394Z,86.11
2023-02-08T10:40:56.790Z,84.61
2023-02-08T10:43:37.238Z,85.22
2023-02-08T10:46:09.882Z,84.66
2023-02-08T10:48:46.978Z,84.12
2023-02-08T10:51:17.894Z,84.71
2023-02-08T10:53:44.854Z,85.14
2023-02-08T10:56:29.718Z,85.25
2023-02-08T10:59:00.501Z,84.31
2023-02-08T11:01:27.931Z,83.73
2023-02-08T11:04:12.078Z,84.22
2023-02-08T11:06:40.622Z,84.00
2023-02-08T11:09:13.154Z,83.40
2023-02-08T11:11:41.161Z,83.73
2023-02-08T11:14:19.525Z,84.33
2023-02-08T11:16:54.147Z,84.16
2023-02-08T11:19:35.366Z,84.01
2023-02-08T11:22:05.736Z,84.53
2023-02-08T11:24:40.027Z,84.35
2023-02-08T11:27:28.866Z,83.67
2023-02-08T11:30:15.823Z,82.62
2023-02-08T11:32:44.255Z,83.25
2023-02-08T11:35:23.747Z,83.00
2023-02-08T11:37:54.667Z,77.49
2023-02-08T11:40:25.002Z,76.97
2023-02-08T11:42:51.729Z,77.50
2023-02-08T11:45:36.314Z,76.10
2023-02-08T11:48:05.014Z,75.51
2023-02-08T11:50:34.811Z,70.24
2023-02-08T11:53:06.522Z,66.12
2023-02-08T11:55:34.554Z,67.05
2023-02-08T11:58:09.536Z,66.76
2023-02-08T12:00:37.393Z,66.48
2023-02-08T12:03:06.885Z,67.08
2023-02-08T12:05:49.870Z,67.86
2023-02-08T12:08:29.237Z,68.70
2023-02-08T12:11:14.190Z,67.83
2023-02-08T12:13:46.764Z,67.88
2023-02-08T12:16:22.045Z,68.51
2023-02-08T12:18:52.734Z,67.56
2023-02-08T12:21:23.253Z,67.41
2023-02-08T12:23:55.847Z,66.81
2023-02-08T12:26:37.495Z,65.16
2023-02-08T12:29:48.009Z,65.55
2023-02-08T12:32:20.732Z,64.32
2023-02-08T12:35:33.054Z,63.47
2023-02-08T12:38:57.209Z,62.24
2023-02-08T12:41:36.233Z,62.48
2023-02-08T12:44:08.756Z,60.89
2023-02-08T12:46:49.069Z,60.74
2023-02-08T12:49:41.871Z,59.91
2023-02-08T12:52:24.303Z,60.17
2023-02-08T12:54:58.205Z,59.11
2023-02-08T12:57:27.105Z,58.99
2023-02-08T13:00:23.798Z,58.61
2023-02-08T13:03:16.425Z,58.26
2023-02-08T13:06:01.265Z,57.78
2023-02-08T13:08:40.677Z,57.77
2023-02-08T13:11:37.237Z,58.62
2023-02-08T13:14:13.507Z,57.88
2023-02-08T13:16:46.040Z,57.81
2023-02-08T13:19:33.651Z,56.79
2023-02-08T13:22:00.685Z,57.07
2023-02-08T13:24:41.866Z,57.42
2023-02-08T13:27:16.159Z,57.76
2023-02-08T13:29:47.144Z,57.21
2023-02-08T13:32:22.417Z,56.61
2023-02-08T13:34:53.130Z,56.99
2023-02-08T13:37:30.262Z,56.52
2023-02-08T13:40:17.392Z,56.13
2023-02-08T13:42:49.144Z,56.71
2023-02-08T13:45:39.929Z,55.55
2023-02-08T13:48:08.652Z,56.08
2023-02-08T13:50:35.307Z,56.32
2023-02-08T13:53:02.965Z,55.05
2023-02-08T13:55:33.571Z,55.49
2023-02-08T13:58:16.196Z,54.42
2023-02-08T14:01:08.824Z,54.97
2023-02-08T14:03:35.482Z,55.58
2023-02-08T14:06:05.725Z,55.34
2023-02-08T14:09:07.123Z,55.95
2023-02-08T14:11:41.136Z,57.18
2023-02-08T14:14:17.641Z,57.18
2023-02-08T14:17:20.175Z,58.56
2023-02-08T14:19:57.227Z,59.07
2023-02-08T14:22:23.821Z,59.65
2023-02-08T14:25:01.858Z,59.62
2023-02-08T14:27:53.588Z,58.17
2023-02-08T14:30:22.234Z,58.68
2023-02-08T14:32:51.492Z,58.50
2023-02-08T14:35:22.887Z,58.72
2023-02-08T14:37:52.172Z,59.03
2023-02-08T14:40:22.462Z,59.83
2023-02-08T14:43:03.911Z,60.01
2023-02-08T14:45:39.209Z,60.21
2023-02-08T14:48:11.990Z,60.48
2023-02-08T14:50:51.187Z,60.33
2023-02-08T14:53:52.409Z,62.23
2023-02-08T14:56:31.601Z,61.30
2023-02-08T14:59:09.546Z,61.35
2023-02-08T15:01:44.943Z,63.03
2023-02-08T15:04:15.580Z,64.29
2023-02-08T15:07:40.868Z,63.28
2023-02-08T15:10:15.860Z,62.23
2023-02-08T15:12:45.697Z,62.84
2023-02-08T15:15:33.420Z,64.41
2023-02-08T15:18:01.657Z,64.19
2023-02-08T15:20:33.208Z,64.82
2023-02-08T15:23:07.219Z,64.42
2023-02-08T15:25:36.407Z,66.08
2023-02-08T15:28:15.058Z,66.08
2023-02-08T15:30:42.808Z,66.58
2023-02-08T15:33:14.573Z,66.69
2023-02-08T15:35:42.622Z,67.54
2023-02-08T15:38:27.676Z,67.75
2023-02-08T15:41:03.448Z,68.70
2023-02-08T15:43:30.507Z,68.41
2023-02-08T15:45:58.463Z,68.55
2023-02-08T15:48:25.890Z,68.53
2023-02-08T15:50:53.832Z,68.63
2023-02-08T15:53:20.835Z,68.80
2023-02-08T15:55:49.796Z,69.10
2023-02-08T15:58:28.569Z,69.21
2023-02-08T16:00:57.346Z,69.28
2023-02-08T16:03:24.683Z,69.73
2023-02-08T16:05:54.205Z,70.01
2023-02-08T16:08:23.682Z,70.56
2023-02-08T16:10:54.756Z,71.00
2023-02-08T16:13:27.701Z,70.64
2023-02-08T16:16:07.229Z,71.11
2023-02-08T16:18:46.067Z,71.32
2023-02-08T16:21:27.147Z,71.65
2023-02-08T16:23:56.669Z,72.34
2023-02-08T16:26:28.202Z,72.50
2023-02-08T16:29:00.749Z,71.60
2023-02-08T16:31:30.909Z,72.34
2023-02-08T16:34:13.054Z,72.43
2023-02-08T16:36:41.462Z,72.40
2023-02-08T16:39:13.842Z,73.25
2023-02-08T16:42:16.122Z,73.94
2023-02-08T16:44:59.183Z,73.75
2023-02-08T16:47:29.946Z,73.83
2023-02-08T16:49:56.507Z,74.32
2023-02-08T16:52:23.021Z,75.23
2023-02-08T16:54:49.539Z,75.75
2023-02-08T16:57:16.279Z,75.17
2023-02-08T16:59:42.894Z,75.06
2023-02-08T17:02:13.414Z,74.86
2023-02-08T17:04:40.372Z,74.29
2023-02-08T17:07:13.340Z,74.37
2023-02-08T17:09:42.252Z,75.06
2023-02-08T17:12:21.773Z,74.45
2023-02-08T17:14:48.625Z,75.21
2023-02-08T17:17:15.400Z,75.60
2023-02-08T17:19:44.409Z,75.93
2023-02-08T17:22:10.964Z,76.29
2023-02-08T17:24:39.214Z,76.29
2023-02-08T17:27:06.007Z,76.78
2023-02-08T17:29:32.599Z,76.96
2023-02-08T17:31:59.373Z,76.96
2023-02-08T17:34:25.889Z,77.80
2023-02-08T17:36:52.557Z,78.16
2023-02-08T17:39:19.192Z,77.71
2023-02-08T17:41:45.708Z,77.43
2023-02-08T17:44:15.207Z,77.31
2023-02-08T17:46:42.502Z,77.68
2023-02-08T17:49:09.109Z,78.19
2023-02-08T17:51:35.602Z,78.67
2023-02-08T17:54:05.422Z,78.76
2023-02-08T17:56:35.364Z,78.98
2023-02-08T17:59:04.240Z,78.88
2023-02-08T18:01:31.381Z,79.00
2023-02-08T18:03:59.428Z,79.55
2023-02-08T18:06:26.105Z,80.65
2023-02-08T18:08:54.599Z,80.99
2023-02-08T18:11:21.171Z,80.33
2023-02-08T18:13:49.328Z,80.81
2023-02-08T18:16:21.300Z,81.07
2023-02-08T18:18:47.963Z,81.61
2023-02-08T18:21:17.441Z,81.96
2023-02-08T18:23:44.456Z,81.97
2023-02-08T18:26:17.020Z,83.38
2023-02-08T18:28:44.794Z,83.01
2023-02-08T18:31:14.850Z,82.98
2023-02-08T18:33:42.828Z,82.99
2023-02-08T18:36:11.801Z,82.47
2023-02-08T18:38:45.569Z,82.14
2023-02-08T18:41:18.786Z,82.12
2023-02-08T18:43:45.792Z,82.35
2023-02-08T18:46:14.552Z,82.69
2023-02-08T18:48:41.595Z,82.53
2023-02-08T18:51:09.491Z,82.83
2023-02-08T18:53:38.994Z,82.87
2023-02-08T18:56:07.343Z,82.59
2023-02-08T18:58:34.591Z,82.67
2023-02-08T19:01:15.677Z,83.65
2023-02-08T19:03:43.149Z,84.11
2023-02-08T19:06:22.770Z,83.99
2023-02-08T19:08:51.613Z,84.22
2023-02-08T19:11:25.277Z,84.35
2023-02-08T19:13:52.491Z,84.45
2023-02-08T19:16:22.056Z,85.75
2023-02-08T19:18:49.202Z,88.95
2023-02-08T19:21:17.484Z,88.20
2023-02-08T19:23:48.216Z,87.40
2023-02-08T19:26:18.205Z,87.14
2023-02-08T19:28:44.683Z,87.50
2023-02-08T19:31:13.810Z,87.19
2023-02-08T19:33:42.239Z,87.13
2023-02-08T19:36:11.810Z,86.74
2023-02-08T19:38:38.427Z,86.25
2023-02-08T19:41:06.697Z,86.45
2023-02-08T19:43:33.757Z,86.67
2023-02-08T19:46:00.474Z,85.97
2023-02-08T19:48:27.164Z,86.36
2023-02-08T19:50:58.647Z,85.66
2023-02-08T19:53:25.874Z,85.33
2023-02-08T19:56:06.769Z,86.02
2023-02-08T19:58:34.447Z,85.90
2023-02-08T20:01:06.236Z,85.90
2023-02-08T20:03:32.766Z,85.80
2023-02-08T20:05:59.221Z,86.02
2023-02-08T20:08:27.384Z,86.22
2023-02-08T20:10:54.833Z,86.45
2023-02-08T20:13:21.804Z,86.76
2023-02-08T20:15:48.527Z,86.83
2023-02-08T20:18:16.297Z,87.59
2023-02-08T20:20:43.553Z,88.90
2023-02-08T20:23:21.761Z,88.20
2023-02-08T20:25:48.897Z,89.00
2023-02-08T20:28:15.501Z,88.43
2023-02-08T20:30:42.235Z,88.36
2023-02-08T20:33:08.786Z,88.61
2023-02-08T20:35:36.470Z,89.16
2023-02-08T20:38:03.221Z,89.00
2023-02-08T20:40:29.885Z,88.94
2023-02-08T20:42:56.414Z,89.46
2023-02-08T20:45:23.050Z,89.71
2023-02-08T20:47:49.562Z,90.03
2023-02-08T20:50:19.640Z,89.87
2023-02-08T20:52:47.289Z,89.58
2023-02-08T20:55:13.796Z,89.92
2023-02-08T20:57:40.593Z,90.04
2023-02-08T21:00:07.569Z,90.32
2023-02-08T21:02:34.167Z,90.05
2023-02-08T21:05:00.700Z,90.34
2023-02-08T21:07:27.235Z,90.22
2023-02-08T21:09:53.791Z,90.70
2023-02-08T21:12:20.325Z,90.86
2023-02-08T21:14:46.776Z,91.00
2023-02-08T21:17:13.246Z,90.79
2023-02-08T21:19:39.691Z,91.50
2023-02-08T21:22:06.367Z,91.28
2023-02-08T21:24:32.926Z,91.77
2023-02-08T21:26:59.721Z,91.52
2023-02-08T21:29:26.386Z,91.47
2023-02-08T21:31:54.404Z,91.07
2023-02-08T21:34:21.450Z,89.86
2023-02-08T21:36:48.246Z,89.32
2023-02-08T21:39:14.689Z,89.01
2023-02-08T21:41:41.166Z,88.89
2023-02-08T21:44:09.163Z,88.96
2023-02-08T21:46:35.889Z,89.00
2023-02-08T21:49:21.370Z,89.19
2023-02-08T21:52:06.348Z,89.01
2023-02-08T21:54:44.633Z,88.45
2023-02-08T21:57:18.945Z,88.83
2023-02-08T21:59:47.532Z,89.40
2023-02-08T22:02:16.786Z,89.14
2023-02-08T22:04:46.599Z,89.19
2023-02-08T22:07:13.728Z,89.71
2023-02-08T22:09:41.646Z,89.99
2023-02-08T22:12:14.502Z,90.25
2023-02-08T22:14:41.047Z,89.76
2023-02-08T22:17:07.543Z,90.20
2023-02-08T22:19:34.047Z,90.36
2023-02-08T22:22:02.232Z,90.83
2023-02-08T22:24:28.698Z,90.95
2023-02-08T22:26:55.707Z,91.53
2023-02-08T22:29:22.987Z,90.74
2023-02-08T22:31:49.610Z,91.14
2023-02-08T22:34:16.217Z,91.61
2023-02-08T22:36:42.676Z,91.62
2023-02-08T22:39:09.185Z,91.64
2023-02-08T22:41:35.941Z,92.19
2023-02-08T22:44:02.429Z,91.06
2023-02-08T22:46:29.099Z,91.34
2023-02-08T22:48:55.793Z,91.36
2023-02-08T22:51:23.557Z,91.28
2023-02-08T22:53:50.182Z,91.18
2023-02-08T22:56:18.175Z,91.80
2023-02-08T22:58:44.605Z,91.74
2023-02-08T23:01:15.718Z,91.85
2023-02-08T23:03:43.033Z,92.04
2023-02-08T23:06:10.874Z,92.21
2023-02-08T23:08:37.512Z,92.42
2023-02-08T23:11:05.844Z,91.80
2023-02-08T23:13:33.015Z,92.02
2023-02-08T23:15:59.679Z,92.27
2023-02-08T23:18:26.290Z,92.07
2023-02-08T23:20:54.439Z,92.02
2023-02-08T23:23:21.080Z,92.20
2023-02-08T23:25:47.914Z,92.12
2023-02-08T23:28:14.521Z,92.65
2023-02-08T23:30:42.411Z,92.46
2023-02-08T23:33:09.057Z,92.76
2023-02-08T23:35:35.556Z,92.59
2023-02-08T23:38:02.204Z,91.97
2023-02-08T23:40:28.755Z,92.41
2023-02-08T23:42:55.274Z,91.95
2023-02-08T23:45:22.734Z,92.27
2023-02-08T23:47:49.274Z,91.28
2023-02-08T23:50:15.818Z,91.82
2023-02-08T23:52:42.567Z,91.52
2023-02-08T23:55:09.346Z,91.87
2023-02-08T23:57:37.290Z,91.76
